Time;durP1;ratioP1;P1;durP2;ratioP2;P2;SDS_P1;SDS_P2;PMS_P1;PMS_P2;Temp;Humidity;BMP_temperature;BMP_pressure;BME280_temperature;BME280_humidity;BME280_pressure;Samples;Min_cycle;Max_cycle;Signal;HPM_P1;HPM_P2
2021/12/28 00:02:00;;;;;;;3.47;1.10;;;6.00;99.90;;;5.22;100.00;95831.06;5006675;28;20117;-41
2021/12/28 00:04:26;;;;;;;5.20;1.05;;;5.90;99.90;;;5.20;100.00;95828.50;5002098;28;20621;-43
2021/12/28 00:06:51;;;;;;;5.20;1.10;;;5.90;99.90;;;5.22;100.00;95829.28;5005478;28;20035;-43
2021/12/28 00:09:17;;;;;;;2.78;0.77;;;5.90;99.90;;;5.22;100.00;95828.44;5005856;28;20061;-41
2021/12/28 00:11:43;;;;;;;2.15;0.75;;;5.90;99.90;;;5.21;100.00;95826.75;5003224;28;20136;-40
2021/12/28 00:14:09;;;;;;;5.90;1.60;;;5.90;99.90;;;5.21;100.00;95811.94;5004067;28;20034;-43
2021/12/28 00:19:26;;;;;;;2.55;0.93;;;5.90;99.90;;;5.14;100.00;95821.78;4995204;28;20717;-41
2021/12/28 00:21:52;;;;;;;2.65;0.82;;;5.80;99.90;;;5.09;100.00;95818.50;5005946;28;20030;-43
2021/12/28 00:24:18;;;;;;;5.07;1.10;;;5.80;99.90;;;5.10;100.00;95830.66;5005004;28;20056;-41
2021/12/28 00:26:44;;;;;;;3.20;0.90;;;5.80;99.90;;;5.07;100.00;95825.53;5002314;28;20065;-40
2021/12/28 00:29:10;;;;;;;3.10;0.75;;;5.80;99.90;;;5.07;100.00;95830.78;5002833;28;20034;-43
2021/12/28 00:31:36;;;;;;;5.20;0.80;;;5.80;99.90;;;5.10;100.00;95830.66;5004612;28;20061;-43
2021/12/28 00:34:01;;;;;;;4.45;1.70;;;5.80;99.90;;;5.07;100.00;95827.31;5002737;28;20204;-43
2021/12/28 00:36:28;;;;;;;3.33;0.90;;;5.80;99.90;;;5.01;100.00;95822.31;4984661;28;20034;-44
2021/12/28 00:38:53;;;;;;;5.72;1.05;;;5.70;99.90;;;4.97;100.00;95819.84;5002887;28;20404;-38
2021/12/28 00:41:20;;;;;;;3.28;0.93;;;5.70;99.90;;;4.95;100.00;95818.19;5006057;28;20042;-40
2021/12/28 00:43:46;;;;;;;3.67;1.27;;;5.60;99.90;;;4.87;100.00;95823.72;5005148;28;20124;-42
2021/12/28 00:46:12;;;;;;;10.00;1.40;;;5.60;99.90;;;4.85;100.00;95824.72;5005646;28;20468;-41
2021/12/28 00:48:38;;;;;;;3.58;1.25;;;5.60;99.90;;;4.88;100.00;95819.34;4999044;28;20029;-39
2021/12/28 00:51:05;;;;;;;4.63;1.35;;;5.60;99.90;;;4.84;100.00;95818.63;5003445;28;20022;-41
2021/12/28 00:53:31;;;;;;;6.18;1.30;;;5.60;99.90;;;4.82;100.00;95803.94;5003343;28;20490;-40
2021/12/28 00:55:57;;;;;;;7.93;1.45;;;5.60;99.90;;;4.85;100.00;95803.81;5003639;28;20034;-44
2021/12/28 00:58:23;;;;;;;10.07;1.20;;;5.60;99.90;;;4.82;100.00;95807.38;5005092;28;20505;-42
2021/12/28 01:00:50;;;;;;;7.40;1.10;;;5.60;99.90;;;4.82;100.00;95810.00;5005646;28;20033;-43
2021/12/28 01:03:16;;;;;;;7.75;0.98;;;5.60;99.90;;;4.82;100.00;95799.56;5003371;28;20096;-42
2021/12/28 01:05:43;;;;;;;7.70;1.55;;;5.50;99.90;;;4.86;100.00;95808.13;5003892;28;20514;-41
2021/12/28 01:08:10;;;;;;;4.50;1.20;;;5.60;99.90;;;4.87;100.00;95804.59;5003654;28;20033;-41
2021/12/28 01:10:48;;;;;;;7.60;1.45;;;5.60;99.90;;;4.85;100.00;95803.81;5001706;28;20073;-42
2021/12/28 01:13:14;;;;;;;8.65;1.25;;;5.60;99.90;;;4.91;100.00;95793.97;5000502;28;20030;-41
2021/12/28 01:15:41;;;;;;;11.95;1.40;;;5.60;99.90;;;4.99;100.00;95791.06;5033516;22;20120;-81
2021/12/28 01:18:08;;;;;;;4.68;1.30;;;5.60;99.90;;;4.97;100.00;95785.00;5016918;28;20120;-83
2021/12/28 01:20:34;;;;;;;7.10;1.70;;;5.70;99.90;;;5.01;100.00;95798.81;5032900;28;20028;-84
2021/12/28 01:23:00;;;;;;;6.05;1.00;;;5.60;99.90;;;4.88;100.00;95783.66;5016871;28;20128;-81
2021/12/28 01:25:27;;;;;;;6.97;1.25;;;5.60;99.90;;;4.82;100.00;95759.53;5014533;28;20079;-81
2021/12/28 01:27:53;;;;;;;6.57;1.30;;;5.60;99.90;;;4.86;100.00;95779.38;5016093;28;20033;-82
2021/12/28 01:30:21;;;;;;;6.72;1.00;;;5.60;99.90;;;4.84;100.00;95781.22;5016337;28;20029;-82
2021/12/28 01:32:49;;;;;;;4.57;1.20;;;5.60;99.90;;;4.77;100.00;95759.72;5028600;28;20025;-82
2021/12/28 01:35:17;;;;;;;10.18;1.80;;;5.60;99.90;;;4.89;100.00;95776.66;5012852;28;20068;-83
2021/12/28 01:37:44;;;;;;;4.75;1.25;;;5.60;99.90;;;4.78;100.00;95758.81;4995126;28;20095;-82
2021/12/28 01:40:16;;;;;;;5.35;1.15;;;5.60;99.90;;;4.82;100.00;95751.69;5012544;28;20384;-83
2021/12/28 01:42:59;;;;;;;;;;;5.60;99.90;;;4.80;100.00;95743.91;5011616;28;20446;-82
2021/12/28 01:45:51;;;;;;;4.15;1.23;;;5.60;99.90;;;4.78;100.00;95746.59;5026202;28;19917;-82
2021/12/28 01:48:23;;;;;;;5.47;1.50;;;5.60;99.90;;;4.88;100.00;95754.06;5024755;28;20116;-83
2021/12/28 01:50:54;;;;;;;6.55;1.40;;;5.70;99.90;;;4.77;100.00;95721.41;4996244;28;20034;-82
2021/12/28 01:53:20;;;;;;;6.93;1.52;;;5.70;99.90;;;4.98;100.00;95744.94;5011607;28;20033;-82
2021/12/28 01:55:52;;;;;;;7.65;1.35;;;5.70;99.90;;;4.92;100.00;95725.16;5010464;28;20268;-82
2021/12/28 01:58:18;;;;;;;;;;;5.70;99.90;;;5.02;100.00;95733.44;4994170;28;20558;-82
2021/12/28 02:00:47;;;;;;;7.57;1.40;;;5.70;99.90;;;5.04;100.00;95726.38;5007894;28;20013;-82
2021/12/28 02:03:16;;;;;;;4.88;1.17;;;5.70;99.90;;;4.90;100.00;95698.25;5009650;28;20550;-83
2021/12/28 02:05:42;;;;;;;8.48;1.25;;;5.70;99.90;;;4.92;100.00;95701.63;5008076;28;20049;-83
2021/12/28 02:08:12;;;;;;;9.65;1.25;;;5.80;99.90;;;4.96;100.00;95707.56;5031347;28;20045;-82
2021/12/28 02:10:39;;;;;;;5.40;1.13;;;5.70;99.90;;;4.85;100.00;95681.06;4999553;28;20044;-82
2021/12/28 02:13:06;;;;;;;5.28;1.33;;;5.80;99.90;;;5.10;100.00;95704.38;5018253;28;20078;-82
2021/12/28 02:15:34;;;;;;;8.60;1.55;;;5.80;99.90;;;5.11;100.00;95691.25;5015744;28;20099;-82
2021/12/28 02:18:00;;;;;;;4.95;1.25;;;5.80;99.90;;;5.14;100.00;95693.72;5031637;28;20025;-82
2021/12/28 02:20:26;;;;;;;6.15;1.48;;;5.90;99.90;;;4.93;100.00;95671.97;5013931;28;20036;-83
2021/12/28 02:22:52;;;;;;;7.85;1.30;;;5.90;99.90;;;5.02;100.00;95683.78;5030430;28;20044;-83
2021/12/28 02:25:19;;;;;;;7.05;1.10;;;5.80;99.90;;;5.20;100.00;95697.84;5013934;28;20048;-82
2021/12/28 02:27:46;;;;;;;7.03;1.30;;;5.90;99.90;;;5.19;100.00;95701.38;5014625;28;20025;-82
2021/12/28 02:30:18;;;;;;;6.32;1.38;;;5.90;99.90;;;5.13;100.00;95681.59;5015739;28;20021;-83
2021/12/28 02:32:47;;;;;;;5.50;1.25;;;5.90;99.90;;;5.10;100.00;95668.66;5010232;28;20105;-83
2021/12/28 02:35:17;;;;;;;6.55;1.17;;;5.90;99.90;;;5.13;100.00;95673.75;5022926;28;20097;-83
2021/12/28 02:37:43;;;;;;;7.47;1.40;;;5.80;99.90;;;5.03;100.00;95669.81;5011105;28;20032;-82
2021/12/28 02:40:12;;;;;;;7.97;1.38;;;5.80;99.90;;;4.86;100.00;95659.25;5029554;28;20037;-83
2021/12/28 02:42:39;;;;;;;6.15;1.17;;;5.80;99.90;;;4.93;100.00;95668.50;5012942;28;20056;-83
2021/12/28 02:45:12;;;;;;;9.98;1.75;;;5.70;99.90;;;4.95;100.00;95670.16;4996556;28;20021;-82
2021/12/28 02:47:43;;;;;;;7.60;1.10;;;5.60;99.90;;;4.91;100.00;95654.69;5016016;28;20041;-82
2021/12/28 02:50:27;;;;;;;10.68;1.45;;;5.60;99.90;;;4.92;100.00;95653.78;5017678;28;20022;-84
2021/12/28 02:52:54;;;;;;;6.90;1.58;;;5.60;99.90;;;4.79;100.00;95629.91;5021028;28;20052;-83
2021/12/28 02:55:27;;;;;;;4.47;1.30;;;5.60;99.90;;;4.90;100.00;95639.91;5010492;28;20493;-84
2021/12/28 02:57:57;;;;;;;4.93;1.30;;;5.70;99.90;;;4.84;100.00;95629.72;5015023;28;20080;-83
2021/12/28 03:00:49;;;;;;;7.85;1.90;;;5.70;99.90;;;5.02;100.00;95647.22;5035676;28;20037;-84
2021/12/28 03:03:22;;;;;;;7.55;1.52;;;5.70;99.90;;;4.99;100.00;95626.47;5015216;28;20049;-84
2021/12/28 03:05:52;;;;;;;5.97;1.40;;;5.80;99.90;;;5.05;100.00;95625.34;5011104;28;20037;-84
2021/12/28 03:08:22;;;;;;;9.20;1.65;;;5.80;99.90;;;5.07;100.00;95618.28;5039986;28;20406;-83
2021/12/28 03:10:49;;;;;;;7.82;1.65;;;5.80;99.90;;;5.20;100.00;95634.28;5014988;28;20029;-82
2021/12/28 03:13:24;;;;;;;5.75;1.30;;;5.90;99.90;;;5.09;100.00;95609.47;5028798;28;20037;-82
2021/12/28 03:15:51;;;;;;;10.77;1.77;;;5.90;99.90;;;5.24;100.00;95618.41;5012858;28;20017;-82
2021/12/28 03:18:17;;;;;;;6.35;1.42;;;5.90;99.90;;;5.23;100.00;95615.88;5010647;28;20029;-82
2021/12/28 03:20:44;;;;;;;6.72;1.92;;;5.90;99.90;;;5.25;100.00;95612.25;5012792;28;20033;-82
2021/12/28 03:23:14;;;;;;;7.55;1.90;;;6.00;99.90;;;5.30;100.00;95612.06;5012599;28;20026;-82
2021/12/28 03:25:40;;;;;;;9.52;1.17;;;6.00;99.90;;;5.28;100.00;95598.22;5009877;28;20037;-82
2021/12/28 03:28:06;;;;;;;6.35;1.67;;;6.10;99.90;;;5.34;100.00;95598.75;4994343;28;20039;-83
2021/12/28 03:30:32;;;;;;;8.80;1.70;;;6.10;99.90;;;5.41;100.00;95619.41;5010509;28;20040;-84
2021/12/28 03:32:58;;;;;;;7.68;1.50;;;6.10;99.90;;;5.23;100.00;95587.94;5024871;28;20052;-83
2021/12/28 03:35:25;;;;;;;10.15;2.08;;;6.10;99.90;;;5.23;100.00;95579.28;5013084;28;20073;-85
2021/12/28 03:37:51;;;;;;;6.32;1.33;;;6.10;99.90;;;5.39;100.00;95588.13;5015166;28;20183;-84
2021/12/28 03:40:22;;;;;;;7.75;1.50;;;6.20;99.90;;;5.33;100.00;95581.41;5030840;28;20049;-83
2021/12/28 03:42:48;;;;;;;7.70;2.00;;;6.20;99.90;;;5.34;100.00;95583.09;4995728;28;20036;-84
2021/12/28 03:45:14;;;;;;;7.13;1.60;;;6.20;99.90;;;5.34;100.00;95577.00;5027609;28;20403;-83
2021/12/28 03:47:40;;;;;;;5.90;1.40;;;6.20;99.90;;;5.42;100.00;95589.72;5015599;28;20033;-84
2021/12/28 03:50:08;;;;;;;8.00;1.52;;;6.20;99.90;;;5.42;100.00;95579.28;5013743;28;20064;-83
2021/12/28 03:52:35;;;;;;;7.65;1.55;;;6.20;99.90;;;5.45;100.00;95585.22;5013675;28;20491;-83
2021/12/28 03:55:00;;;;;;;5.43;1.25;;;6.20;99.90;;;5.48;100.00;95582.47;5009216;28;20034;-84
2021/12/28 03:57:26;;;;;;;6.03;1.27;;;6.20;99.90;;;5.53;100.00;95583.09;5012408;28;20149;-83
2021/12/28 03:59:52;;;;;;;4.00;1.02;;;6.20;99.90;;;5.44;100.00;95562.63;5012255;28;20041;-84
2021/12/28 04:02:18;;;;;;;4.28;1.30;;;6.20;99.90;;;5.54;100.00;95576.97;5027521;28;20502;-85
2021/12/28 04:04:43;;;;;;;6.97;1.88;;;6.30;99.90;;;5.49;100.00;95568.47;4994045;28;20033;-82
2021/12/28 04:07:13;;;;;;;8.18;1.60;;;6.30;99.90;;;5.37;100.00;95545.53;5006971;28;20532;-83
2021/12/28 04:12:17;;;;;;;3.45;1.20;;;6.30;99.90;;;5.61;100.00;95576.66;5013498;28;20148;-82
2021/12/28 04:14:43;;;;;;;11.60;1.67;;;6.30;99.90;;;5.59;100.00;95575.91;5009856;28;20388;-83
2021/12/28 04:17:09;;;;;;;6.43;1.42;;;6.30;99.90;;;5.70;100.00;95577.06;5022982;28;20083;-82
2021/12/28 04:19:34;;;;;;;7.53;1.80;;;6.40;99.90;;;5.64;100.00;95553.00;5020709;28;20049;-82
2021/12/28 04:22:00;;;;;;;5.88;1.38;;;6.40;99.90;;;5.58;100.00;95556.75;5038205;28;20026;-82
2021/12/28 04:24:26;;;;;;;5.22;1.55;;;6.40;99.90;;;5.68;100.00;95563.22;5015056;28;20037;-82
2021/12/28 04:26:52;;;;;;;4.25;1.40;;;6.50;99.90;;;5.70;100.00;95566.63;4999181;28;20114;-82
2021/12/28 04:29:18;;;;;;;8.15;2.10;;;6.50;99.90;;;5.77;100.00;95576.81;5015520;28;20022;-82
2021/12/28 04:31:43;;;;;;;4.05;1.33;;;6.50;99.90;;;5.74;100.00;95575.16;5032897;28;20030;-82
2021/12/28 04:34:09;;;;;;;6.45;1.25;;;6.50;99.90;;;5.81;100.00;95576.56;4994686;28;20033;-83
2021/12/28 04:36:35;;;;;;;4.93;1.20;;;6.50;99.90;;;5.71;100.00;95554.41;5017699;28;20029;-83
2021/12/28 04:39:01;;;;;;;5.50;1.15;;;6.50;99.90;;;5.79;100.00;95547.03;5017365;28;20040;-83
2021/12/28 04:41:27;;;;;;;5.53;1.30;;;6.50;99.90;;;5.92;100.00;95566.47;4997489;28;20029;-82
2021/12/28 04:43:52;;;;;;;6.43;1.52;;;6.60;99.90;;;5.82;100.00;95551.28;5013581;28;20029;-82
2021/12/28 04:46:18;;;;;;;3.72;1.10;;;6.60;99.90;;;5.87;100.00;95550.13;5017158;28;20029;-83
2021/12/28 04:48:44;;;;;;;5.10;1.48;;;6.60;99.90;;;5.76;100.00;95536.72;5035134;28;20088;-82
2021/12/28 04:51:10;;;;;;;3.78;1.20;;;6.60;99.90;;;5.83;100.00;95534.66;5016378;28;20096;-83
2021/12/28 04:53:37;;;;;;;5.32;1.33;;;6.60;99.90;;;5.98;100.00;95552.28;5017963;28;20029;-83
2021/12/28 04:56:03;;;;;;;8.68;1.40;;;6.60;99.90;;;5.96;100.00;95553.25;5003778;28;20097;-83
2021/12/28 04:58:29;;;;;;;6.35;1.48;;;6.70;99.90;;;5.66;100.00;95507.53;5014483;28;20040;-83
2021/12/28 05:00:56;;;;;;;5.97;1.13;;;6.70;99.90;;;5.84;100.00;95521.50;5016576;28;20034;-83
2021/12/28 05:03:22;;;;;;;7.85;1.25;;;6.70;99.90;;;6.06;100.00;95546.66;5001046;28;20422;-82
2021/12/28 05:05:51;;;;;;;5.10;1.27;;;6.70;99.90;;;6.05;100.00;95537.13;5000530;28;20168;-82
2021/12/28 05:08:19;;;;;;;2.30;0.88;;;6.70;99.90;;;6.06;100.00;95533.56;5018034;28;20045;-82
2021/12/28 05:10:45;;;;;;;5.80;1.23;;;6.70;99.90;;;6.00;100.00;95524.25;5016527;28;20029;-83
2021/12/28 05:13:11;;;;;;;6.55;1.05;;;6.70;99.90;;;5.90;100.00;95496.81;5013730;28;20113;-82
2021/12/28 05:15:38;;;;;;;4.57;1.08;;;6.70;99.90;;;6.06;100.00;95525.72;5032939;28;20025;-83
2021/12/28 05:18:05;;;;;;;2.97;0.93;;;6.70;99.90;;;6.05;100.00;95529.28;5023059;28;20029;-82
2021/12/28 05:20:31;;;;;;;3.45;1.20;;;6.70;99.90;;;6.06;100.00;95525.72;5016565;28;20523;-82
2021/12/28 05:22:57;;;;;;;5.72;1.40;;;6.70;99.90;;;5.82;100.00;95478.03;5032086;28;20045;-81
2021/12/28 05:25:22;;;;;;;4.35;1.15;;;6.70;99.90;;;5.98;100.00;95523.50;4999139;28;20044;-82
2021/12/28 05:27:49;;;;;;;6.65;1.50;;;6.70;99.90;;;5.98;100.00;95512.19;5016452;28;20037;-83
2021/12/28 05:30:14;;;;;;;8.23;1.20;;;6.70;99.90;;;5.91;100.00;95509.81;5034628;28;20501;-82
2021/12/28 05:32:40;;;;;;;5.57;1.25;;;6.70;99.90;;;5.97;100.00;95507.88;5021874;28;20097;-82
2021/12/28 05:35:08;;;;;;;4.40;1.30;;;6.70;99.90;;;5.87;100.00;95494.38;5031039;28;20068;-84
2021/12/28 05:37:34;;;;;;;3.03;1.23;;;6.70;99.90;;;5.92;100.00;95485.38;5032526;28;20036;-82
2021/12/28 05:40:00;;;;;;;3.78;0.95;;;6.70;99.90;;;6.05;100.00;95514.41;5027260;28;20029;-82
2021/12/28 05:42:26;;;;;;;6.35;1.10;;;6.70;99.90;;;6.01;100.00;95498.94;5019723;28;20442;-82
2021/12/28 05:44:52;;;;;;;6.20;1.08;;;6.70;99.90;;;6.03;100.00;95510.16;5017023;28;20029;-83
2021/12/28 05:47:19;;;;;;;5.78;1.20;;;6.70;99.90;;;6.06;100.00;95494.31;5016928;28;20596;-82
2021/12/28 05:49:45;;;;;;;7.45;1.38;;;6.70;99.90;;;5.90;100.00;95476.75;5038216;28;20079;-83
2021/12/28 05:52:11;;;;;;;4.72;1.23;;;6.80;99.90;;;6.02;100.00;95469.25;5015432;28;20029;-83
2021/12/28 05:54:37;;;;;;;2.67;1.02;;;6.80;99.90;;;6.13;100.00;95487.88;5017419;28;20461;-83
2021/12/28 05:57:04;;;;;;;4.03;1.45;;;6.80;99.90;;;5.97;100.00;95472.06;5030732;28;20029;-83
2021/12/28 05:59:29;;;;;;;3.97;1.10;;;6.80;99.90;;;6.05;100.00;95482.19;5015949;28;20494;-83
2021/12/28 06:01:55;;;;;;;6.70;1.20;;;6.80;99.90;;;6.13;100.00;95503.56;4997958;28;20025;-83
2021/12/28 06:04:21;;;;;;;6.00;1.30;;;6.80;99.90;;;5.95;100.00;95458.19;5012693;28;20033;-83
2021/12/28 06:06:47;;;;;;;2.78;1.10;;;6.80;99.90;;;6.05;100.00;95467.31;5010627;28;20025;-83
2021/12/28 06:09:13;;;;;;;2.75;1.10;;;6.80;99.90;;;5.92;100.00;95450.47;4995288;28;20171;-82
2021/12/28 06:11:39;;;;;;;3.08;1.10;;;6.80;99.90;;;5.74;100.00;95433.94;5012732;28;20025;-83
2021/12/28 06:14:05;;;;;;;3.95;1.30;;;6.80;99.90;;;6.06;100.00;95468.16;5029200;28;20029;-83
2021/12/28 06:16:32;;;;;;;3.95;1.25;;;6.80;99.90;;;6.19;100.00;95478.84;4997131;28;20108;-83
2021/12/28 06:18:57;;;;;;;4.55;1.40;;;6.80;99.90;;;6.05;100.00;95464.69;5025408;28;20025;-83
2021/12/28 06:21:25;;;;;;;2.97;1.00;;;6.80;99.90;;;6.10;100.00;95472.31;5026091;28;20034;-83
2021/12/28 06:23:51;;;;;;;5.82;1.20;;;6.80;99.90;;;6.05;100.00;95453.41;5025842;28;20073;-83
2021/12/28 06:26:16;;;;;;;5.00;1.23;;;6.80;99.90;;;6.13;100.00;95472.16;5005754;28;20451;-83
2021/12/28 06:28:42;;;;;;;5.07;1.30;;;6.90;99.90;;;6.16;100.00;95484.25;5018847;28;20036;-82
2021/12/28 06:31:08;;;;;;;7.18;1.35;;;6.90;99.90;;;6.07;100.00;95470.69;5010997;28;20033;-83
2021/12/28 06:33:34;;;;;;;3.20;1.30;;;6.80;99.90;;;6.17;100.00;95462.38;5034673;28;20029;-83
2021/12/28 06:35:59;;;;;;;4.22;1.20;;;6.90;99.90;;;6.29;100.00;95480.94;5016421;28;20490;-82
2021/12/28 06:38:25;;;;;;;1.77;1.08;;;6.90;99.90;;;6.17;100.00;95459.75;4999245;28;20480;-82
2021/12/28 06:40:51;;;;;;;4.53;1.20;;;7.00;99.90;;;6.24;100.00;95469.84;5032212;28;20049;-83
2021/12/28 06:43:17;;;;;;;2.80;0.88;;;7.00;99.90;;;6.14;100.00;95447.69;5019665;28;20033;-83
2021/12/28 06:45:43;;;;;;;3.67;1.20;;;7.00;99.90;;;6.21;100.00;95461.28;5014769;28;20029;-83
2021/12/28 06:48:08;;;;;;;2.92;1.20;;;7.00;99.90;;;6.33;100.00;95462.44;5014576;28;20033;-84
2021/12/28 06:50:34;;;;;;;2.78;0.80;;;7.00;99.90;;;6.18;100.00;95440.53;5012212;28;20108;-83
2021/12/28 06:53:00;;;;;;;4.72;0.80;;;7.00;99.90;;;6.22;100.00;95440.28;5031017;28;20072;-83
2021/12/28 06:55:26;;;;;;;3.35;1.00;;;7.00;99.90;;;6.12;100.00;95446.94;5014833;28;20048;-82
2021/12/28 06:57:51;;;;;;;2.75;1.00;;;6.90;99.90;;;6.20;100.00;95463.06;5014853;28;20029;-83
2021/12/28 07:00:19;;;;;;;5.07;1.10;;;6.80;99.90;;;6.04;100.00;95451.69;5015902;28;20033;-83
2021/12/28 07:02:45;;;;;;;3.53;0.95;;;6.80;99.90;;;6.08;100.00;95467.16;5012659;28;20128;-83
2021/12/28 07:05:12;;;;;;;3.35;0.90;;;6.70;99.90;;;6.13;100.00;95464.31;5013218;28;20124;-84
2021/12/28 07:07:38;;;;;;;3.28;0.70;;;6.80;99.90;;;6.12;100.00;95465.25;4986900;28;20115;-84
2021/12/28 07:10:06;;;;;;;1.23;0.70;;;6.80;99.90;;;6.15;100.00;95462.44;4982987;28;20026;-84
2021/12/28 07:12:33;;;;;;;1.50;0.60;;;6.90;99.90;;;6.20;100.00;95473.53;5007001;28;20042;-85
2021/12/28 07:14:59;;;;;;;1.33;0.60;;;6.80;99.90;;;5.95;100.00;95436.41;5008750;28;20029;-85
2021/12/28 07:17:26;;;;;;;0.82;0.52;;;6.80;99.90;;;6.09;100.00;95458.38;5005976;28;20600;-84
2021/12/28 07:19:54;;;;;;;1.30;0.70;;;6.80;99.90;;;6.24;100.00;95469.84;5007512;28;20037;-86
2021/12/28 07:22:19;;;;;;;1.48;0.45;;;6.90;99.90;;;6.22;100.00;95445.53;4990784;28;20041;-85
2021/12/28 07:24:45;;;;;;;1.45;0.50;;;7.00;99.90;;;6.43;100.00;95454.06;5006553;28;20033;-85
2021/12/28 07:27:11;;;;;;;0.60;0.50;;;7.10;99.90;;;6.54;100.00;95458.72;5006876;28;20080;-84
2021/12/28 07:29:37;;;;;;;1.02;0.63;;;7.20;99.90;;;6.57;100.00;95455.09;5015188;28;20505;-85
2021/12/28 07:32:06;;;;;;;0.50;0.50;;;7.30;99.90;;;6.63;100.00;95436.44;5008743;28;20048;-84
2021/12/28 07:34:33;;;;;;;2.58;0.90;;;7.30;99.90;;;6.79;100.00;95457.44;5006661;28;20530;-85
2021/12/28 07:36:59;;;;;;;1.73;0.90;;;7.40;99.90;;;6.89;100.00;95466.50;4993786;28;20048;-85
2021/12/28 07:39:25;;;;;;;0.88;0.50;;;7.50;99.90;;;6.86;100.00;95464.91;5007235;28;20030;-85
2021/12/28 07:41:51;;;;;;;1.27;0.60;;;7.50;99.90;;;6.86;100.00;95453.56;5005205;28;20033;-85
2021/12/28 07:44:17;;;;;;;0.75;0.50;;;7.60;99.90;;;6.97;100.00;95464.31;5011294;28;20036;-85
2021/12/28 07:46:43;;;;;;;1.85;0.63;;;7.60;99.90;;;6.88;100.00;95452.56;5007650;28;20042;-84
2021/12/28 07:49:08;;;;;;;0.47;0.30;;;7.70;99.90;;;6.84;100.00;95442.34;4996805;28;20040;-85
2021/12/28 07:51:34;;;;;;;4.30;0.75;;;7.70;99.90;;;6.84;100.00;95424.84;5008627;28;20032;-85
2021/12/28 07:54:00;;;;;;;2.00;0.70;;;7.70;99.90;;;7.12;100.00;95462.63;5005351;28;20026;-85
2021/12/28 07:56:26;;;;;;;1.02;0.57;;;7.80;99.90;;;7.08;100.00;95455.88;5007018;28;20055;-85
2021/12/28 07:58:52;;;;;;;1.35;0.65;;;7.80;99.90;;;7.18;100.00;95467.56;5006071;28;20095;-85
2021/12/28 08:01:18;;;;;;;1.42;0.63;;;7.90;99.90;;;7.06;100.00;95445.47;5021485;28;20415;-85
2021/12/28 08:03:44;;;;;;;0.98;0.38;;;8.00;99.90;;;7.44;100.00;95479.22;5008215;28;20029;-85
2021/12/28 08:06:09;;;;;;;2.03;0.50;;;8.00;99.90;;;7.37;100.00;95450.81;5006413;28;20125;-84
2021/12/28 08:08:35;;;;;;;1.67;0.60;;;8.10;99.90;;;7.49;100.00;95454.56;4989800;28;20111;-84
2021/12/28 08:11:02;;;;;;;3.40;1.20;;;8.20;99.90;;;7.51;100.00;95457.94;5009031;28;20056;-85
2021/12/28 08:13:29;;;;;;;0.63;0.50;;;8.20;99.90;;;7.52;100.00;95459.59;5022557;28;20022;-85
2021/12/28 08:15:55;;;;;;;1.88;0.98;;;8.20;99.90;;;7.58;100.00;95488.13;4990962;28;20025;-85
2021/12/28 08:18:21;;;;;;;1.92;0.70;;;8.20;99.90;;;7.46;100.00;95468.66;5007068;28;20037;-85
2021/12/28 08:20:47;;;;;;;0.85;0.35;;;8.20;99.90;;;7.44;100.00;95474.00;4988898;28;20167;-84
2021/12/28 08:23:14;;;;;;;0.82;0.38;;;8.20;99.90;;;7.50;100.00;95490.31;5005378;28;20934;-85
2021/12/28 08:25:40;;;;;;;0.40;0.40;;;8.10;99.90;;;7.45;100.00;95467.81;5006936;28;20041;-85
2021/12/28 08:28:06;;;;;;;2.03;0.50;;;8.10;99.90;;;7.57;100.00;95486.44;5009425;28;20032;-85
2021/12/28 08:30:36;;;;;;;0.90;0.40;;;8.10;99.90;;;7.40;100.00;95464.59;5008865;28;20029;-84
2021/12/28 08:33:05;;;;;;;0.55;0.32;;;8.20;99.90;;;7.57;100.00;95494.28;5022369;28;20511;-84
2021/12/28 08:35:32;;;;;;;1.38;0.55;;;8.10;99.90;;;7.51;100.00;95494.66;5008897;28;20025;-84
2021/12/28 08:37:58;;;;;;;0.95;0.68;;;8.20;99.90;;;7.59;100.00;95502.91;5029757;28;20032;-85
2021/12/28 08:40:24;;;;;;;0.63;0.28;;;8.20;99.90;;;7.54;100.00;95492.69;5028335;28;20502;-85
2021/12/28 08:42:50;;;;;;;0.30;0.17;;;8.20;99.90;;;7.77;100.00;95501.91;5010716;28;20115;-84
2021/12/28 08:45:16;;;;;;;0.75;0.43;;;8.30;99.90;;;7.76;100.00;95510.72;5005345;28;20130;-85
2021/12/28 08:47:42;;;;;;;1.35;0.40;;;8.40;99.90;;;7.85;100.00;95511.97;5010746;28;20036;-84
2021/12/28 08:50:10;;;;;;;0.63;0.20;;;8.50;99.90;;;7.94;100.00;95511.44;5012396;28;20123;-85
2021/12/28 08:52:36;;;;;;;2.38;0.30;;;8.50;99.90;;;7.82;100.00;95492.00;5009113;28;20033;-85
2021/12/28 08:55:04;;;;;;;0.75;0.40;;;8.60;99.90;;;7.88;100.00;95490.81;5023361;28;20270;-85
2021/12/28 08:57:30;;;;;;;4.07;0.45;;;8.60;99.90;;;7.98;100.00;95501.63;5024555;28;20120;-85
2021/12/28 08:59:55;;;;;;;1.90;0.47;;;8.60;99.90;;;7.97;100.00;95498.16;5023342;28;20120;-85
2021/12/28 09:02:21;;;;;;;0.65;0.32;;;8.70;99.90;;;8.03;100.00;95507.47;5010507;28;20021;-85
2021/12/28 09:04:47;;;;;;;0.70;0.20;;;8.70;99.90;;;8.12;100.00;95499.06;5026519;28;20084;-85
2021/12/28 09:07:14;;;;;;;0.68;0.20;;;8.80;99.90;;;8.25;100.00;95516.72;5005539;28;20290;-85
2021/12/28 09:09:41;;;;;;;0.90;0.30;;;8.90;99.90;;;8.37;100.00;95516.03;4993649;28;20037;-84
2021/12/28 09:12:07;;;;;;;0.75;0.50;;;9.00;99.90;;;8.45;100.00;95532.19;5005539;28;20036;-84
2021/12/28 09:14:33;;;;;;;1.75;0.55;;;9.10;99.90;;;8.35;100.00;95496.88;5010473;28;20037;-85
2021/12/28 09:16:59;;;;;;;2.88;0.45;;;9.10;99.90;;;8.38;100.00;95500.19;5025261;28;20033;-85
2021/12/28 09:19:25;;;;;;;1.55;0.30;;;9.10;99.90;;;8.41;100.00;95512.28;5006553;28;20028;-85
2021/12/28 09:21:51;;;;;;;2.20;0.32;;;9.10;99.90;;;8.51;100.00;95528.38;5025816;28;20234;-85
2021/12/28 09:24:17;;;;;;;1.00;0.30;;;9.20;99.90;;;8.55;100.00;95520.22;5027886;28;20068;-85
2021/12/28 09:26:42;;;;;;;1.45;0.47;;;9.20;99.90;;;8.46;100.00;95499.75;5026560;28;20071;-85
2021/12/28 09:29:08;;;;;;;1.15;0.30;;;9.20;99.90;;;8.60;100.00;95533.09;5026557;28;20087;-84
2021/12/28 09:31:34;;;;;;;0.50;0.30;;;9.20;99.90;;;8.56;100.00;95523.69;5008692;28;20028;-85
2021/12/28 09:34:00;;;;;;;0.28;0.20;;;9.20;99.90;;;8.61;100.00;95534.78;5008079;28;20018;-85
2021/12/28 09:36:26;;;;;;;0.30;0.30;;;9.20;99.90;;;8.74;100.00;95532.25;5026620;28;20427;-86
2021/12/28 09:38:52;;;;;;;2.40;0.38;;;9.30;99.90;;;8.68;100.00;95528.22;5010696;28;20047;-86
2021/12/28 09:41:18;;;;;;;0.93;0.40;;;9.40;99.90;;;8.82;100.00;95535.28;5006408;28;20029;-84
2021/12/28 09:43:44;;;;;;;0.90;0.38;;;9.40;99.90;;;8.83;100.00;95521.22;5026553;28;20080;-84
2021/12/28 09:46:10;;;;;;;0.73;0.32;;;9.50;99.90;;;8.85;100.00;95521.13;5009315;28;20030;-85
2021/12/28 09:48:37;;;;;;;0.30;0.30;;;9.60;99.90;;;9.06;100.00;95542.63;5008037;28;20032;-84
2021/12/28 09:51:05;;;;;;;2.22;0.40;;;9.60;99.90;;;8.90;100.00;95522.56;4993628;28;20059;-84
2021/12/28 09:53:31;;;;;;;0.77;0.47;;;9.70;99.90;;;9.16;100.00;95544.63;5008144;28;20090;-83
2021/12/28 09:55:57;;;;;;;0.40;0.40;;;9.80;99.90;;;9.11;100.00;95527.44;5025703;28;20053;-85
2021/12/28 09:58:23;;;;;;;0.70;0.50;;;9.90;99.90;;;9.41;100.00;95558.06;5009082;28;20099;-90
2021/12/28 10:00:49;;;;;;;1.20;0.55;;;9.90;99.90;;;9.43;100.00;95548.28;5006624;28;20217;-89
2021/12/28 10:03:15;;;;;;;1.88;0.35;;;10.10;99.90;;;9.42;100.00;95552.72;5014206;28;20040;-90
2021/12/28 10:05:42;;;;;;;1.02;0.47;;;10.10;99.90;;;9.26;100.00;95507.22;5012096;28;20549;-87
2021/12/28 10:08:08;;;;;;;0.70;0.30;;;10.20;99.90;;;9.75;100.00;95568.16;5012512;28;20107;-83
2021/12/28 10:10:41;;;;;;;0.60;0.30;;;10.30;99.90;;;9.66;100.00;95529.28;5008907;28;20030;-84
2021/12/28 10:13:17;;;;;;;0.88;0.40;;;10.40;99.90;;;9.94;100.00;95559.97;5006661;28;20033;-83
2021/12/28 10:15:46;;;;;;;0.70;0.35;;;10.60;99.90;;;10.05;100.00;95566.31;5027011;28;20057;-84
2021/12/28 10:18:12;;;;;;;0.60;0.30;;;10.70;99.90;;;9.92;100.00;95540.78;5007715;28;20033;-84
2021/12/28 10:21:03;;;;;;;0.95;0.20;;;10.70;99.90;;;9.89;100.00;95543.59;5009536;28;20033;-83
2021/12/28 10:23:32;;;;;;;1.20;0.40;;;10.60;99.90;;;9.92;100.00;95566.25;4997222;28;20083;-84
2021/12/28 10:26:05;;;;;;;1.27;0.57;;;10.50;99.90;;;9.81;100.00;95539.78;5006395;28;20037;-84
2021/12/28 10:28:39;;;;;;;1.42;0.30;;;10.50;99.90;;;9.72;100.00;95557.81;5005284;28;20032;-83
2021/12/28 10:31:09;;;;;;;0.40;0.40;;;10.40;99.90;;;9.62;100.00;95533.03;5010627;28;20025;-86